createdAt,value
2018-03-18T00:02:09.307Z,9.40
2018-03-18T00:04:36.754Z,9.30
2018-03-18T00:07:04.217Z,9.30
2018-03-18T00:09:31.666Z,9.30
2018-03-18T00:11:59.131Z,9.30
2018-03-18T00:14:26.585Z,9.30
2018-03-18T00:16:54.051Z,9.20
2018-03-18T00:19:21.510Z,9.20
2018-03-18T00:21:48.966Z,9.20
2018-03-18T00:24:16.423Z,9.20
2018-03-18T00:26:43.877Z,9.10
2018-03-18T00:29:11.320Z,9.10
2018-03-18T00:31:38.780Z,9.10
2018-03-18T00:34:06.248Z,9.10
2018-03-18T00:36:33.709Z,9.10
2018-03-18T00:39:01.916Z,9.10
2018-03-18T00:41:29.374Z,9.00
2018-03-18T00:43:56.819Z,9.10
2018-03-18T00:46:24.277Z,9.00
2018-03-18T00:48:51.717Z,9.00
2018-03-18T00:51:30.966Z,9.00
2018-03-18T00:53:59.185Z,9.00
2018-03-18T00:56:26.642Z,8.90
2018-03-18T00:58:54.099Z,8.90
2018-03-18T01:01:21.558Z,8.90
2018-03-18T01:03:49.017Z,8.90
2018-03-18T01:06:16.481Z,8.90
2018-03-18T01:08:43.928Z,8.90
2018-03-18T01:11:11.373Z,8.90
2018-03-18T01:13:38.817Z,8.80
2018-03-18T01:16:06.261Z,8.80
2018-03-18T01:18:33.714Z,8.80
2018-03-18T01:21:01.174Z,8.80
2018-03-18T01:23:33.393Z,8.80
2018-03-18T01:26:00.842Z,8.80
2018-03-18T01:28:28.306Z,8.70
2018-03-18T01:30:55.767Z,8.70
2018-03-18T01:33:23.233Z,8.70
2018-03-18T01:35:50.690Z,8.70
2018-03-18T01:38:18.143Z,8.70
2018-03-18T01:40:45.593Z,8.70
2018-03-18T01:43:13.042Z,8.70
2018-03-18T01:45:40.510Z,8.70
2018-03-18T01:48:07.977Z,8.60
2018-03-18T01:50:35.440Z,8.60
2018-03-18T01:53:14.625Z,8.60
2018-03-18T01:55:42.077Z,8.60
2018-03-18T01:58:10.282Z,8.60
2018-03-18T02:00:37.729Z,8.60
2018-03-18T02:03:05.200Z,8.50
2018-03-18T02:05:32.646Z,8.50
2018-03-18T02:08:00.121Z,8.50
2018-03-18T02:10:27.577Z,8.60
2018-03-18T02:12:55.017Z,8.50
2018-03-18T02:15:22.479Z,8.60
2018-03-18T02:17:49.934Z,8.50
2018-03-18T02:20:17.422Z,8.50
2018-03-18T02:22:45.613Z,8.40
2018-03-18T02:25:13.061Z,8.40
2018-03-18T02:27:40.519Z,8.40
2018-03-18T02:30:07.981Z,8.40
2018-03-18T02:32:35.452Z,8.30
2018-03-18T02:35:03.712Z,8.30
2018-03-18T02:37:31.166Z,8.30
2018-03-18T02:39:58.642Z,8.30
2018-03-18T02:42:26.861Z,8.20
2018-03-18T02:44:54.317Z,8.20
2018-03-18T02:47:21.784Z,8.20
2018-03-18T02:49:49.238Z,8.10
2018-03-18T02:52:16.693Z,8.10
2018-03-18T02:54:45.362Z,8.20
2018-03-18T02:57:12.802Z,8.20
2018-03-18T02:59:40.263Z,8.10
2018-03-18T03:02:08.497Z,8.10
2018-03-18T03:04:35.962Z,8.00
2018-03-18T03:07:03.417Z,8.10
2018-03-18T03:09:30.887Z,8.10
2018-03-18T03:11:58.339Z,8.00
2018-03-18T03:14:25.790Z,8.00
2018-03-18T03:16:53.267Z,8.00
2018-03-18T03:19:20.725Z,8.00
2018-03-18T03:21:48.186Z,8.00
2018-03-18T03:24:15.665Z,7.90
2018-03-18T03:26:43.101Z,7.90
2018-03-18T03:29:10.553Z,7.90
2018-03-18T03:31:38.774Z,7.80
2018-03-18T03:34:06.228Z,7.90
2018-03-18T03:36:33.685Z,7.90
2018-03-18T03:39:01.136Z,7.80
2018-03-18T03:41:28.583Z,7.80
2018-03-18T03:43:56.018Z,7.80
2018-03-18T03:46:24.232Z,7.80
2018-03-18T03:48:51.704Z,7.70
2018-03-18T03:51:19.453Z,7.70
2018-03-18T03:53:46.881Z,7.70
2018-03-18T03:56:15.106Z,7.70
2018-03-18T03:58:42.562Z,7.70
2018-03-18T04:01:10.058Z,7.70
2018-03-18T04:03:37.498Z,7.70
2018-03-18T04:06:04.954Z,7.60
2018-03-18T04:08:32.406Z,7.60
2018-03-18T04:10:59.865Z,7.60
2018-03-18T04:13:27.328Z,7.60
2018-03-18T04:15:54.777Z,7.60
2018-03-18T04:18:22.222Z,7.60
2018-03-18T04:20:49.671Z,7.60
2018-03-18T04:23:17.119Z,7.60
2018-03-18T04:25:44.567Z,7.50
2018-03-18T04:28:12.005Z,7.50
2018-03-18T04:30:40.217Z,7.40
2018-03-18T04:33:07.686Z,7.40
2018-03-18T04:35:35.155Z,7.40
2018-03-18T04:38:03.358Z,7.40
2018-03-18T04:40:30.797Z,7.40
2018-03-18T04:42:58.254Z,7.40
2018-03-18T04:45:25.697Z,7.40
2018-03-18T04:47:53.158Z,7.40
2018-03-18T04:50:20.597Z,7.40
2018-03-18T04:52:48.048Z,7.40
2018-03-18T04:55:15.490Z,7.40
2018-03-18T04:57:42.964Z,7.30
2018-03-18T05:00:10.423Z,7.30
2018-03-18T05:02:37.873Z,7.30
2018-03-18T05:05:05.328Z,7.30
2018-03-18T05:07:32.796Z,7.30
2018-03-18T05:10:00.250Z,7.30
2018-03-18T05:12:27.718Z,7.30
2018-03-18T05:14:55.178Z,7.30
2018-03-18T05:17:22.648Z,7.30
2018-03-18T05:19:50.099Z,7.30
2018-03-18T05:22:17.557Z,7.30
2018-03-18T05:24:45.014Z,7.30
2018-03-18T05:27:12.485Z,7.30
2018-03-18T05:29:39.941Z,7.20
2018-03-18T05:32:07.391Z,7.20
2018-03-18T05:34:34.846Z,7.20
2018-03-18T05:37:02.354Z,7.20
2018-03-18T05:39:29.758Z,7.20
2018-03-18T05:41:57.224Z,7.20
2018-03-18T05:44:24.673Z,7.10
2018-03-18T05:46:52.138Z,7.10
2018-03-18T05:49:19.582Z,7.10
2018-03-18T05:51:47.030Z,7.10
2018-03-18T05:54:14.502Z,7.10
2018-03-18T05:56:41.980Z,7.10
2018-03-18T05:59:09.478Z,7.10
2018-03-18T06:01:36.934Z,7.20
2018-03-18T06:04:04.393Z,7.20
2018-03-18T06:06:31.834Z,7.20
2018-03-18T06:09:00.076Z,7.20
2018-03-18T06:11:27.518Z,7.20
2018-03-18T06:13:54.982Z,7.20
2018-03-18T06:16:22.446Z,7.20
2018-03-18T06:18:49.918Z,7.20
2018-03-18T06:21:17.365Z,7.30
2018-03-18T06:23:44.817Z,7.30
2018-03-18T06:26:12.266Z,7.20
2018-03-18T06:28:39.734Z,7.30
2018-03-18T06:31:07.189Z,7.30
2018-03-18T06:33:34.649Z,7.30
2018-03-18T06:36:02.088Z,7.30
2018-03-18T06:38:29.531Z,7.30
2018-03-18T06:40:56.993Z,7.30
2018-03-18T06:43:24.450Z,7.30
2018-03-18T06:45:51.907Z,7.30
2018-03-18T06:48:19.379Z,7.30
2018-03-18T06:50:46.818Z,7.30
2018-03-18T06:53:14.273Z,7.30
2018-03-18T06:55:41.727Z,7.40
2018-03-18T06:58:09.187Z,7.40
2018-03-18T07:00:36.674Z,7.40
2018-03-18T07:03:04.125Z,7.50
2018-03-18T07:05:32.341Z,7.70
2018-03-18T07:08:00.561Z,7.80
2018-03-18T07:10:28.002Z,7.80
2018-03-18T07:12:55.456Z,7.90
2018-03-18T07:15:22.921Z,7.90
2018-03-18T07:17:50.362Z,8.00
2018-03-18T07:20:17.826Z,8.10
2018-03-18T07:22:45.286Z,8.10
2018-03-18T07:25:12.733Z,8.20
2018-03-18T07:27:40.173Z,8.20
2018-03-18T07:30:08.402Z,8.30
2018-03-18T07:32:35.845Z,8.30
2018-03-18T07:35:03.304Z,8.40
2018-03-18T07:37:30.757Z,8.30
2018-03-18T07:39:58.213Z,8.40
2018-03-18T07:42:25.671Z,8.40
2018-03-18T07:44:53.128Z,8.50
2018-03-18T07:47:20.570Z,8.50
2018-03-18T07:49:48.018Z,8.50
2018-03-18T07:52:16.238Z,8.60
2018-03-18T07:54:43.693Z,8.60
2018-03-18T07:57:11.151Z,8.70
2018-03-18T07:59:38.608Z,8.70
2018-03-18T08:02:06.065Z,8.70
2018-03-18T08:04:33.529Z,8.70
2018-03-18T08:07:01.002Z,8.70
2018-03-18T08:09:28.449Z,8.70
2018-03-18T08:11:55.909Z,8.80
2018-03-18T08:14:23.348Z,8.90
2018-03-18T08:16:51.571Z,9.30
2018-03-18T08:19:19.787Z,9.50
2018-03-18T08:21:47.257Z,9.40
2018-03-18T08:24:14.707Z,9.60
2018-03-18T08:26:42.173Z,9.90
2018-03-18T08:29:09.639Z,10.10
2018-03-18T08:31:37.089Z,10.50
2018-03-18T08:34:04.545Z,10.80
2018-03-18T08:36:32.021Z,11.20
2018-03-18T08:38:59.462Z,11.50
2018-03-18T08:41:26.974Z,11.90
2018-03-18T08:43:54.386Z,12.20
2018-03-18T08:46:21.860Z,12.50
2018-03-18T08:48:49.317Z,12.80
2018-03-18T08:51:16.768Z,13.10
2018-03-18T08:53:44.233Z,13.50
2018-03-18T08:56:11.722Z,13.70
2018-03-18T08:58:39.188Z,14.00
2018-03-18T09:01:06.622Z,14.30
2018-03-18T09:03:34.070Z,14.50
2018-03-18T09:06:02.313Z,15.00
2018-03-18T09:08:29.777Z,15.00
2018-03-18T09:10:57.234Z,15.30
2018-03-18T09:13:25.458Z,15.80
2018-03-18T09:15:52.902Z,15.80
2018-03-18T09:18:21.135Z,16.30
2018-03-18T09:20:48.585Z,16.30
2018-03-18T09:23:16.045Z,16.60
2018-03-18T09:25:43.501Z,16.80
2018-03-18T09:28:10.970Z,17.00
2018-03-18T09:30:38.427Z,17.20
2018-03-18T09:33:05.906Z,17.50
2018-03-18T09:35:33.345Z,17.70
2018-03-18T09:38:00.816Z,18.00
2018-03-18T09:40:28.268Z,18.30
2018-03-18T09:42:56.542Z,18.90
2018-03-18T09:45:23.997Z,18.80
2018-03-18T09:47:51.458Z,19.10
2018-03-18T09:50:18.913Z,19.30
2018-03-18T09:52:46.371Z,19.40
2018-03-18T09:55:13.813Z,19.70
2018-03-18T09:57:41.278Z,20.00
2018-03-18T10:00:08.790Z,20.10
2018-03-18T10:02:36.283Z,20.30
2018-03-18T10:05:03.700Z,20.40
2018-03-18T10:07:31.159Z,20.70
2018-03-18T10:09:59.382Z,21.10
2018-03-18T10:12:27.678Z,21.30
2018-03-18T10:14:55.147Z,21.30
2018-03-18T10:17:22.682Z,21.60
2018-03-18T10:19:50.149Z,21.80
2018-03-18T10:22:17.611Z,22.00
2018-03-18T10:24:45.067Z,22.30
2018-03-18T10:27:12.557Z,22.50
2018-03-18T10:29:40.011Z,22.70
2018-03-18T10:32:07.526Z,23.00
2018-03-18T10:34:34.982Z,23.20
2018-03-18T10:37:02.438Z,23.40
2018-03-18T10:39:29.894Z,23.60
2018-03-18T10:41:57.387Z,23.80
2018-03-18T10:44:24.806Z,24.00
2018-03-18T10:46:52.289Z,24.10
2018-03-18T10:49:19.746Z,24.40
2018-03-18T10:51:47.198Z,24.50
2018-03-18T10:54:14.662Z,24.70
2018-03-18T10:56:42.127Z,25.00
2018-03-18T10:59:10.366Z,25.40
2018-03-18T11:01:43.473Z,25.30
2018-03-18T11:04:17.519Z,25.90
2018-03-18T11:06:45.746Z,26.10
2018-03-18T11:09:13.969Z,26.40
2018-03-18T11:11:41.437Z,26.30
2018-03-18T11:14:08.915Z,26.70
2018-03-18T11:16:36.379Z,27.00
2018-03-18T11:19:03.841Z,27.70
2018-03-18T11:21:31.309Z,28.50
2018-03-18T11:23:59.524Z,31.20
2018-03-18T11:26:27.745Z,33.40
2018-03-18T11:28:55.203Z,33.20
2018-03-18T11:31:22.672Z,35.40
2018-03-18T11:33:50.130Z,36.80
2018-03-18T11:36:17.593Z,36.40
2018-03-18T11:38:45.058Z,35.30
2018-03-18T11:41:12.515Z,34.30
2018-03-18T11:43:39.962Z,33.50
2018-03-18T11:46:07.423Z,32.70
2018-03-18T11:48:34.873Z,32.30
2018-03-18T11:51:03.098Z,31.80
2018-03-18T11:53:30.593Z,31.80
2018-03-18T11:55:59.237Z,31.60
2018-03-18T11:58:26.638Z,31.50
2018-03-18T12:00:54.102Z,31.50
2018-03-18T12:03:21.554Z,31.60
2018-03-18T12:05:49.017Z,31.60
2018-03-18T12:08:28.213Z,31.60
2018-03-18T12:10:55.688Z,31.80
2018-03-18T12:13:23.153Z,31.80
2018-03-18T12:15:50.614Z,31.80
2018-03-18T12:18:18.089Z,31.70
2018-03-18T12:20:45.565Z,31.90
2018-03-18T12:23:13.154Z,31.90
2018-03-18T12:25:41.389Z,31.90
2018-03-18T12:28:08.835Z,31.90
2018-03-18T12:30:38.223Z,32.00
2018-03-18T12:33:05.681Z,32.00
2018-03-18T12:35:33.147Z,32.10
2018-03-18T12:38:00.591Z,32.20
2018-03-18T12:40:29.846Z,32.20
2018-03-18T12:43:10.070Z,32.30
2018-03-18T12:45:37.549Z,32.30
2018-03-18T12:48:04.999Z,32.40
2018-03-18T12:50:32.441Z,32.30
2018-03-18T12:52:59.918Z,32.30
2018-03-18T12:55:27.370Z,32.40
2018-03-18T12:57:54.821Z,32.40
2018-03-18T13:00:22.265Z,32.40
2018-03-18T13:02:49.722Z,32.50
2018-03-18T13:05:17.231Z,32.50
2018-03-18T13:07:44.636Z,32.60
2018-03-18T13:10:12.082Z,32.60
2018-03-18T13:12:39.546Z,32.60
2018-03-18T13:15:06.986Z,32.50
2018-03-18T13:17:34.450Z,32.50
2018-03-18T13:20:01.905Z,32.50
2018-03-18T13:22:29.360Z,32.60
2018-03-18T13:24:56.833Z,32.70
2018-03-18T13:27:24.294Z,32.90
2018-03-18T13:29:51.732Z,33.00
2018-03-18T13:32:19.192Z,33.00
2018-03-18T13:34:46.667Z,33.00
2018-03-18T13:37:14.125Z,33.00
2018-03-18T13:39:42.445Z,33.00
2018-03-18T13:42:10.675Z,32.90
2018-03-18T13:44:38.126Z,32.80
2018-03-18T13:47:05.602Z,32.90
2018-03-18T13:49:33.062Z,32.90
2018-03-18T13:52:00.506Z,32.90
2018-03-18T13:54:28.059Z,32.80
2018-03-18T13:56:55.495Z,32.60
2018-03-18T13:59:22.977Z,32.60
2018-03-18T14:01:50.442Z,32.60
2018-03-18T14:04:17.893Z,32.60
2018-03-18T14:06:45.373Z,32.50
2018-03-18T14:09:14.528Z,32.30
2018-03-18T14:11:41.989Z,32.30
2018-03-18T14:14:09.446Z,32.30
2018-03-18T14:16:36.902Z,32.10
2018-03-18T14:19:04.388Z,32.00
2018-03-18T14:21:31.850Z,31.80
2018-03-18T14:23:59.363Z,31.80
2018-03-18T14:26:26.847Z,31.70
2018-03-18T14:28:54.301Z,31.60
2018-03-18T14:31:23.682Z,31.50
2018-03-18T14:33:51.137Z,31.40
2018-03-18T14:36:19.387Z,31.30
2018-03-18T14:38:47.622Z,31.10
2018-03-18T14:41:15.069Z,31.10
2018-03-18T14:43:42.524Z,31.20
2018-03-18T14:46:09.985Z,31.00
2018-03-18T14:48:37.442Z,31.00
2018-03-18T14:51:04.898Z,30.90
2018-03-18T14:53:32.358Z,30.60
2018-03-18T14:55:59.813Z,30.50
2018-03-18T14:58:27.317Z,30.40
2018-03-18T15:00:54.839Z,30.20
2018-03-18T15:03:22.297Z,29.80
2018-03-18T15:05:49.765Z,29.70
2018-03-18T15:08:17.218Z,29.50
2018-03-18T15:10:44.673Z,29.30
2018-03-18T15:13:12.904Z,28.90
2018-03-18T15:15:40.366Z,28.80
2018-03-18T15:18:09.126Z,28.70
2018-03-18T15:20:36.718Z,28.50
2018-03-18T15:23:04.946Z,28.10
2018-03-18T15:25:32.390Z,28.10
2018-03-18T15:28:00.008Z,27.90
2018-03-18T15:30:28.226Z,27.50
2018-03-18T15:32:55.679Z,27.50
2018-03-18T15:35:23.136Z,27.40
2018-03-18T15:37:51.367Z,27.00
2018-03-18T15:40:18.821Z,26.90
2018-03-18T15:42:47.038Z,26.60
2018-03-18T15:45:14.562Z,26.60
2018-03-18T15:47:42.198Z,26.40
2018-03-18T15:50:09.660Z,26.30
2018-03-18T15:52:37.111Z,26.00
2018-03-18T15:55:04.574Z,25.80
2018-03-18T15:57:32.025Z,25.40
2018-03-18T15:59:59.478Z,25.10
2018-03-18T16:02:27.038Z,24.80
2018-03-18T16:04:54.734Z,24.60
2018-03-18T16:07:22.188Z,24.50
2018-03-18T16:09:50.413Z,24.10
2018-03-18T16:12:17.888Z,24.10
2018-03-18T16:14:45.405Z,23.90
2018-03-18T16:17:12.846Z,23.60
2018-03-18T16:19:40.370Z,23.40
2018-03-18T16:22:07.832Z,23.10
2018-03-18T16:24:35.301Z,22.80
2018-03-18T16:27:03.517Z,22.30
2018-03-18T16:29:42.870Z,22.30
2018-03-18T16:32:10.312Z,22.00
2018-03-18T16:34:37.758Z,21.80
2018-03-18T16:37:05.226Z,21.60
2018-03-18T16:39:32.700Z,21.40
2018-03-18T16:42:00.186Z,21.30
2018-03-18T16:44:27.638Z,21.10
2018-03-18T16:46:55.217Z,20.90
2018-03-18T16:49:22.610Z,20.70
2018-03-18T16:51:50.066Z,20.50
2018-03-18T16:54:17.914Z,20.50
2018-03-18T16:56:46.156Z,20.20
2018-03-18T16:59:13.639Z,20.10
2018-03-18T17:01:41.853Z,19.90
2018-03-18T17:04:09.307Z,19.80
2018-03-18T17:06:36.768Z,19.70
2018-03-18T17:09:04.213Z,19.70
2018-03-18T17:11:31.686Z,19.50
2018-03-18T17:13:59.124Z,18.00
2018-03-18T17:16:26.617Z,16.80
2018-03-18T17:18:54.851Z,15.20
2018-03-18T17:21:22.321Z,15.10
2018-03-18T17:23:49.783Z,14.30
2018-03-18T17:26:17.251Z,14.40
2018-03-18T17:28:44.701Z,14.30
2018-03-18T17:31:12.165Z,13.60
2018-03-18T17:33:39.622Z,14.00
2018-03-18T17:36:07.862Z,13.80
2018-03-18T17:38:35.335Z,13.80
2018-03-18T17:41:03.562Z,13.40
2018-03-18T17:43:32.530Z,13.20
2018-03-18T17:49:17.966Z,13.30
2018-03-18T17:51:57.920Z,13.10
2018-03-18T17:54:37.966Z,12.60
2018-03-18T17:57:06.193Z,12.40
2018-03-18T17:59:33.650Z,12.40
2018-03-18T18:02:01.129Z,12.30
2018-03-18T18:04:28.577Z,12.30
2018-03-18T18:06:56.094Z,12.30
2018-03-18T18:09:23.576Z,11.90
2018-03-18T18:11:51.037Z,12.00
2018-03-18T18:14:18.613Z,11.50
2018-03-18T18:16:46.163Z,11.70
2018-03-18T18:19:13.645Z,11.60
2018-03-18T18:21:41.105Z,11.50
2018-03-18T18:24:08.602Z,11.50
2018-03-18T18:26:36.050Z,11.30
2018-03-18T18:29:03.501Z,11.10
2018-03-18T18:31:30.976Z,10.80
2018-03-18T18:33:58.467Z,11.10
2018-03-18T18:36:25.992Z,10.90
2018-03-18T18:38:54.252Z,10.80
2018-03-18T18:41:22.470Z,10.20
2018-03-18T18:43:49.928Z,10.10
2018-03-18T18:46:17.382Z,10.30
2018-03-18T18:48:44.914Z,9.90
2018-03-18T18:51:13.118Z,9.90
2018-03-18T18:53:40.575Z,9.90
2018-03-18T18:56:08.034Z,10.30
2018-03-18T18:58:35.489Z,9.80
2018-03-18T19:01:02.960Z,10.20
2018-03-18T19:03:30.401Z,9.80
2018-03-18T19:05:57.859Z,9.90
2018-03-18T19:08:25.302Z,9.90
2018-03-18T19:10:52.768Z,9.30
2018-03-18T19:13:21.001Z,9.60
2018-03-18T19:15:48.538Z,9.60
2018-03-18T19:18:16.042Z,9.80
2018-03-18T19:20:44.302Z,9.80
2018-03-18T19:23:12.530Z,9.90
2018-03-18T19:25:40.049Z,9.90
2018-03-18T19:28:07.613Z,9.90
2018-03-18T19:30:35.866Z,9.60
2018-03-18T19:33:03.433Z,9.50
2018-03-18T19:35:31.711Z,9.20
2018-03-18T19:37:59.954Z,9.10
2018-03-18T19:40:28.256Z,8.90
2018-03-18T19:42:55.701Z,8.80
2018-03-18T19:45:23.228Z,9.30
2018-03-18T19:47:50.666Z,9.20
2018-03-18T19:50:18.129Z,9.10
2018-03-18T19:52:45.624Z,9.00
2018-03-18T19:55:13.196Z,9.00
2018-03-18T19:57:41.495Z,9.20
2018-03-18T20:00:09.783Z,9.20
2018-03-18T20:02:38.083Z,9.10
2018-03-18T20:05:05.580Z,9.00
2018-03-18T20:07:33.926Z,8.90
2018-03-18T20:10:01.377Z,8.90
2018-03-18T20:12:29.977Z,8.80
2018-03-18T20:14:57.430Z,8.70
2018-03-18T20:17:24.879Z,8.90
2018-03-18T20:19:52.423Z,8.60
2018-03-18T20:22:19.904Z,8.80
2018-03-18T20:24:47.396Z,9.10
2018-03-18T20:27:15.022Z,8.60
2018-03-18T20:29:42.474Z,8.60
2018-03-18T20:32:09.930Z,8.50
2018-03-18T20:34:37.385Z,8.50
2018-03-18T20:37:04.843Z,8.30
2018-03-18T20:39:32.328Z,7.90
2018-03-18T20:41:59.785Z,7.80
2018-03-18T20:44:27.414Z,7.80
2018-03-18T20:46:54.878Z,8.00
2018-03-18T20:49:22.348Z,8.00
2018-03-18T20:51:49.866Z,7.80
2018-03-18T20:54:17.313Z,7.40
2018-03-18T20:56:44.761Z,7.60
2018-03-18T20:59:12.226Z,7.90
2018-03-18T21:01:39.703Z,7.80
2018-03-18T21:04:07.139Z,7.80
2018-03-18T21:06:34.606Z,8.20
2018-03-18T21:09:02.893Z,7.60
2018-03-18T21:11:30.354Z,7.60
2018-03-18T21:13:58.574Z,7.50
2018-03-18T21:16:26.013Z,7.40
2018-03-18T21:18:53.486Z,7.50
2018-03-18T21:21:20.928Z,7.70
2018-03-18T21:23:48.385Z,7.90
2018-03-18T21:26:15.856Z,7.80
2018-03-18T21:28:43.329Z,7.50
2018-03-18T21:31:10.806Z,7.30
2018-03-18T21:33:39.024Z,7.50
2018-03-18T21:36:06.461Z,7.50
2018-03-18T21:38:33.986Z,7.10
2018-03-18T21:41:02.209Z,7.70
2018-03-18T21:43:29.676Z,7.70
2018-03-18T21:45:57.205Z,7.40
2018-03-18T21:48:25.446Z,7.20
2018-03-18T21:50:52.888Z,7.10
2018-03-18T21:53:20.346Z,7.00
2018-03-18T21:55:48.548Z,7.40
2018-03-18T21:58:16.775Z,7.20
2018-03-18T22:00:44.266Z,7.20
2018-03-18T22:03:11.726Z,7.40
2018-03-18T22:05:39.170Z,7.10
2018-03-18T22:08:06.625Z,7.10
2018-03-18T22:10:34.106Z,7.10
2018-03-18T22:13:02.336Z,7.40
2018-03-18T22:15:31.713Z,7.40
2018-03-18T22:17:59.990Z,7.50
2018-03-18T22:20:28.286Z,7.50
2018-03-18T22:22:55.814Z,7.50
2018-03-18T22:25:24.029Z,6.50
2018-03-18T22:27:51.509Z,6.60
2018-03-18T22:30:18.977Z,6.40
2018-03-18T22:32:46.458Z,6.70
2018-03-18T22:35:13.901Z,6.80
2018-03-18T22:37:42.869Z,6.90
2018-03-18T22:40:10.370Z,6.90
2018-03-18T22:42:38.610Z,6.70
2018-03-18T22:45:06.818Z,7.00
2018-03-18T22:47:34.340Z,7.00
2018-03-18T22:50:01.806Z,7.20
2018-03-18T22:52:29.259Z,7.10
2018-03-18T22:54:56.714Z,7.00
2018-03-18T22:57:24.169Z,6.80
2018-03-18T22:59:51.624Z,6.90
2018-03-18T23:02:19.090Z,6.80
2018-03-18T23:04:46.555Z,6.80
2018-03-18T23:07:14.388Z,6.60
2018-03-18T23:09:41.932Z,6.00
2018-03-18T23:12:09.374Z,5.70
2018-03-18T23:14:36.854Z,5.70
2018-03-18T23:17:04.361Z,5.70
2018-03-18T23:19:31.830Z,5.70
2018-03-18T23:21:59.277Z,5.80
2018-03-18T23:24:26.763Z,5.80
2018-03-18T23:26:55.046Z,5.60
2018-03-18T23:29:22.530Z,5.80
2018-03-18T23:31:50.408Z,5.80
2018-03-18T23:34:17.882Z,5.70
2018-03-18T23:36:45.326Z,5.90
2018-03-18T23:39:12.807Z,5.50
2018-03-18T23:41:40.281Z,5.50
2018-03-18T23:44:08.506Z,5.10
2018-03-18T23:46:35.953Z,5.10
2018-03-18T23:49:03.406Z,4.90
2018-03-18T23:51:30.862Z,5.20
2018-03-18T23:53:59.098Z,5.40
2018-03-18T23:56:27.308Z,5.30
2018-03-18T23:58:54.760Z,5.30
